Time;durP1;ratioP1;P1;durP2;ratioP2;P2;SDS_P1;SDS_P2;PMS_P1;PMS_P2;Temp;Humidity;BMP_temperature;BMP_pressure;BME280_temperature;BME280_humidity;BME280_pressure;Samples;Min_cycle;Max_cycle;Signal;HPM_P1;HPM_P2
2022/11/08 00:01:46;;;;;;;3.83;0.83;;;9.90;99.90;9.80;100513.00;;;;4904732;28;88056;-65
2022/11/08 00:04:14;;;;;;;2.20;1.13;;;9.90;99.90;9.80;100504.00;;;;4898135;28;116645;-65
2022/11/08 00:14:55;;;;;;;0.93;0.93;;;9.80;99.90;9.80;100509.00;;;;4911200;28;87731;-65
2022/11/08 00:17:23;;;;;;;1.60;0.90;;;9.80;99.90;9.80;100507.00;;;;4897595;28;118515;-65
2022/11/08 00:19:49;;;;;;;2.00;1.13;;;9.80;99.90;9.70;100506.00;;;;4898689;28;88098;-65
2022/11/08 00:22:15;;;;;;;1.53;0.90;;;9.80;99.90;9.70;100514.00;;;;4893514;28;87817;-65
2022/11/08 00:24:41;;;;;;;4.73;0.93;;;9.80;99.90;9.70;100511.00;;;;4900176;28;88121;-65
2022/11/08 00:27:14;;;;;;;3.47;1.27;;;9.80;99.90;9.70;100516.00;;;;4901084;28;87809;-66
2022/11/08 00:29:40;;;;;;;1.90;0.87;;;9.80;99.90;9.70;100513.00;;;;4901241;28;87814;-65
2022/11/08 00:32:10;;;;;;;1.30;0.90;;;9.80;99.90;9.70;100502.00;;;;4909839;28;88716;-66
2022/11/08 00:34:36;;;;;;;1.03;0.80;;;9.80;99.90;9.70;100514.00;;;;4897015;28;87893;-65
2022/11/08 00:37:02;;;;;;;1.70;1.00;;;9.80;99.90;9.70;100506.00;;;;4897567;28;118591;-65
2022/11/08 00:39:27;;;;;;;0.90;0.87;;;9.80;99.90;9.70;100496.00;;;;4898656;28;110777;-65
2022/11/08 00:41:53;;;;;;;3.37;1.03;;;9.80;99.90;9.70;100504.00;;;;4901995;28;110700;-66
2022/11/08 00:44:19;;;;;;;1.80;0.93;;;9.80;99.90;9.70;100506.00;;;;4901712;28;109098;-67
2022/11/08 00:46:45;;;;;;;0.83;0.80;;;9.80;99.90;9.60;100505.00;;;;4893190;28;115826;-66
2022/11/08 00:49:10;;;;;;;1.07;0.97;;;9.70;99.90;9.60;100509.00;;;;4903498;28;88363;-66
2022/11/08 00:51:37;;;;;;;2.10;0.83;;;9.70;99.90;9.60;100503.00;;;;4914645;28;88043;-66
2022/11/08 00:54:04;;;;;;;0.70;0.57;;;9.70;99.90;9.60;100508.00;;;;4900696;28;93044;-66
2022/11/08 00:56:30;;;;;;;2.27;0.77;;;9.70;99.90;9.60;100493.00;;;;4891345;28;104362;-65
2022/11/08 00:58:57;;;;;;;3.20;0.90;;;9.60;99.90;9.60;100506.00;;;;4901251;28;111101;-64
2022/11/08 01:01:22;;;;;;;4.00;1.63;;;9.60;99.90;9.50;100495.00;;;;4899743;28;91119;-65
2022/11/08 01:03:49;;;;;;;0.77;0.77;;;9.60;99.90;9.50;100501.00;;;;4903522;28;88087;-65
2022/11/08 01:06:17;;;;;;;2.10;1.47;;;9.60;99.90;9.50;100495.00;;;;4901565;28;87933;-66
2022/11/08 01:08:44;;;;;;;0.80;0.80;;;9.60;99.90;9.50;100496.00;;;;4894812;28;88026;-66
2022/11/08 01:11:17;;;;;;;2.00;1.00;;;9.60;99.90;9.50;100507.00;;;;4916276;28;87840;-66
2022/11/08 01:13:44;;;;;;;1.70;0.77;;;9.60;99.90;9.50;100501.00;;;;4904935;28;87802;-66
2022/11/08 01:16:21;;;;;;;1.13;1.03;;;9.50;99.90;9.40;100495.00;;;;4900880;28;88147;-67
2022/11/08 01:18:50;;;;;;;1.67;1.07;;;9.50;99.90;9.40;100489.00;;;;4901108;28;87970;-65
2022/11/08 01:21:17;;;;;;;1.30;0.83;;;9.50;99.90;9.40;100485.00;;;;4895118;28;94229;-65
2022/11/08 01:23:44;;;;;;;0.70;0.63;;;9.50;99.90;9.40;100489.00;;;;4900731;28;115368;-66
2022/11/08 01:26:20;;;;;;;2.10;1.10;;;9.40;99.90;9.30;100492.00;;;;4901900;28;89235;-68
2022/11/08 01:28:47;;;;;;;2.43;1.10;;;9.40;99.90;9.30;100495.00;;;;4914600;28;98569;-66
2022/11/08 01:31:19;;;;;;;0.90;0.67;;;9.40;99.90;9.30;100481.00;;;;4897891;28;88076;-65
2022/11/08 01:33:45;;;;;;;0.80;0.70;;;9.40;99.90;9.20;100485.00;;;;4899796;28;110424;-65
2022/11/08 01:36:14;;;;;;;1.33;0.90;;;9.30;99.90;9.20;100494.00;;;;4898284;28;88139;-65
2022/11/08 01:38:41;;;;;;;0.47;0.47;;;9.30;99.90;9.20;100483.00;;;;4898849;28;86872;-66
2022/11/08 01:41:10;;;;;;;1.20;1.10;;;9.30;99.90;9.10;100496.00;;;;4898786;28;88259;-66
2022/11/08 01:43:44;;;;;;;1.00;0.87;;;9.20;99.90;9.10;100486.00;;;;4896260;28;112187;-66
2022/11/08 01:46:33;;;;;;;0.80;0.80;;;9.20;99.90;9.00;100477.00;;;;4911589;28;88809;-66
2022/11/08 01:49:29;;;;;;;2.23;1.00;;;9.20;99.90;9.00;100489.00;;;;4901901;28;87922;-65
2022/11/08 01:52:23;;;;;;;0.67;0.60;;;9.20;99.90;9.00;100478.00;;;;4898337;28;88063;-66
2022/11/08 01:55:10;;;;;;;1.20;1.10;;;9.10;99.90;8.90;100478.00;;;;4885946;28;88772;-65
2022/11/08 01:57:54;;;;;;;0.80;0.80;;;9.10;99.90;8.90;100475.00;;;;4899508;28;88754;-66
2022/11/08 02:00:20;;;;;;;0.60;0.50;;;9.00;99.90;8.80;100467.00;;;;4901310;28;105408;-65
2022/11/08 02:02:54;;;;;;;0.60;0.50;;;9.00;99.90;8.80;100474.00;;;;4902635;28;92062;-66
2022/11/08 02:05:25;;;;;;;1.87;1.10;;;8.90;99.90;8.80;100464.00;;;;4900640;28;112150;-66
2022/11/08 02:08:16;;;;;;;1.03;0.80;;;8.90;99.90;8.60;100472.00;;;;4907208;28;87895;-66
2022/11/08 02:10:47;;;;;;;1.27;0.83;;;8.90;99.90;8.60;100465.00;;;;4900828;28;87925;-66
2022/11/08 02:13:18;;;;;;;0.70;0.50;;;8.70;99.90;8.50;100463.00;;;;4901903;28;102744;-66
2022/11/08 02:15:44;;;;;;;1.67;1.20;;;8.70;99.90;8.40;100459.00;;;;4901074;28;88707;-66
2022/11/08 02:18:10;;;;;;;2.07;1.33;;;8.60;99.90;8.40;100461.00;;;;4899469;28;88063;-67
2022/11/08 02:20:36;;;;;;;1.47;1.30;;;8.50;99.90;8.30;100459.00;;;;4893702;28;88021;-67
2022/11/08 02:23:52;;;;;;;0.63;0.60;;;8.50;99.90;8.20;100466.00;;;;4898458;28;109533;-66
2022/11/08 02:26:33;;;;;;;0.90;0.80;;;8.40;99.90;8.20;100468.00;;;;4921376;28;107498;-66
2022/11/08 02:29:26;;;;;;;1.80;0.90;;;8.40;99.90;8.10;100464.00;;;;4910465;28;110751;-66
2022/11/08 02:31:53;;;;;;;0.77;0.70;;;8.30;99.90;8.10;100470.00;;;;4899462;28;87142;-66
2022/11/08 02:34:24;;;;;;;2.40;0.97;;;8.70;99.90;8.10;100454.00;;;;4903473;28;87910;-66
2022/11/08 02:36:50;;;;;;;1.03;1.00;;;8.20;99.90;8.00;100462.00;;;;4889155;28;89516;-66
2022/11/08 02:39:16;;;;;;;0.93;0.73;;;8.20;99.90;8.00;100455.00;;;;4861178;28;89958;-66
2022/11/08 02:41:41;;;;;;;1.40;1.13;;;8.10;99.90;8.00;100447.00;;;;4861803;28;87630;-65
2022/11/08 02:44:07;;;;;;;0.93;0.67;;;8.10;99.90;7.90;100456.00;;;;4878993;28;108191;-66
2022/11/08 02:46:33;;;;;;;2.87;1.17;;;8.20;99.90;7.90;100447.00;;;;4861341;28;116574;-66
2022/11/08 02:48:58;;;;;;;2.20;1.13;;;8.00;99.90;7.90;100452.00;;;;4859782;28;117271;-67
2022/11/08 02:51:24;;;;;;;0.93;0.93;;;8.00;99.90;7.90;100452.00;;;;4863732;28;110533;-67
2022/11/08 02:53:50;;;;;;;1.97;1.13;;;8.00;99.90;7.80;100452.00;;;;4868098;28;108328;-67
2022/11/08 02:56:15;;;;;;;2.00;1.77;;;7.90;99.90;7.80;100458.00;;;;4860012;28;118255;-67
2022/11/08 02:58:41;;;;;;;3.03;1.10;;;7.90;99.90;7.70;100457.00;;;;4864228;28;114735;-67
2022/11/08 03:01:07;;;;;;;0.70;0.60;;;8.20;99.90;7.70;100467.00;;;;4861750;28;89215;-66
2022/11/08 03:03:32;;;;;;;1.83;1.23;;;8.20;99.90;7.60;100463.00;;;;4877713;28;109384;-66
2022/11/08 03:05:58;;;;;;;0.80;0.80;;;7.80;99.90;7.60;100460.00;;;;4862661;28;117507;-66
2022/11/08 03:08:23;;;;;;;1.17;1.07;;;8.10;99.90;7.50;100463.00;;;;4863682;28;117530;-66
2022/11/08 03:10:49;;;;;;;1.37;0.97;;;7.70;99.90;7.50;100466.00;;;;4858241;28;109399;-67
2022/11/08 03:13:15;;;;;;;0.63;0.63;;;7.60;99.90;7.40;100464.00;;;;4865641;28;109155;-66
2022/11/08 03:15:40;;;;;;;1.00;0.83;;;7.50;99.90;7.40;100464.00;;;;4865494;28;118502;-66
2022/11/08 03:18:06;;;;;;;2.33;1.00;;;7.50;99.90;7.30;100461.00;;;;4866275;28;88702;-66
2022/11/08 03:20:32;;;;;;;1.23;1.13;;;7.90;99.90;7.30;100463.00;;;;4868596;28;109681;-66
2022/11/08 03:23:00;;;;;;;2.20;0.93;;;7.40;99.90;7.20;100473.00;;;;4871913;28;104092;-66
2022/11/08 03:25:26;;;;;;;1.47;0.90;;;7.40;99.90;7.20;100475.00;;;;4866443;28;88374;-67
2022/11/08 03:27:52;;;;;;;2.17;1.10;;;7.30;99.90;7.20;100471.00;;;;4869077;28;89093;-67
2022/11/08 03:30:17;;;;;;;1.93;1.03;;;7.60;99.90;7.20;100469.00;;;;4866429;28;111269;-66
2022/11/08 03:32:45;;;;;;;1.47;1.27;;;7.90;99.90;7.20;100468.00;;;;4860922;28;107691;-66
2022/11/08 03:35:14;;;;;;;3.40;1.20;;;7.30;99.90;7.20;100462.00;;;;4867313;28;88568;-66
2022/11/08 03:37:40;;;;;;;1.13;1.03;;;7.30;99.90;7.20;100468.00;;;;4897036;28;87862;-66
2022/11/08 03:40:06;;;;;;;1.47;1.27;;;7.90;99.90;7.10;100467.00;;;;4916868;28;109691;-66
2022/11/08 03:42:33;;;;;;;0.70;0.67;;;7.30;99.90;7.10;100468.00;;;;4898382;28;88210;-66
2022/11/08 03:44:58;;;;;;;2.00;1.03;;;7.20;99.90;7.00;100476.00;;;;4903290;28;110398;-65
2022/11/08 03:47:24;;;;;;;4.80;0.87;;;7.20;99.90;7.00;100467.00;;;;4902117;28;116259;-66
2022/11/08 03:49:50;;;;;;;1.30;1.07;;;7.60;99.90;6.90;100474.00;;;;4907097;28;88982;-66
2022/11/08 03:52:15;;;;;;;2.10;1.20;;;7.80;99.90;6.90;100468.00;;;;4900451;28;108800;-66
2022/11/08 03:54:41;;;;;;;0.83;0.83;;;7.60;99.90;6.80;100469.00;;;;4898693;28;117935;-67
2022/11/08 03:57:07;;;;;;;1.03;0.93;;;7.40;99.90;6.80;100469.00;;;;4903631;28;87902;-67
2022/11/08 03:59:32;;;;;;;6.97;1.37;;;7.00;99.90;6.80;100468.00;;;;4915894;28;108841;-66
2022/11/08 04:01:58;;;;;;;2.20;1.10;;;7.20;99.90;6.80;100472.00;;;;4904689;28;109411;-66
2022/11/08 04:04:23;;;;;;;1.27;1.20;;;7.10;99.90;6.70;100463.00;;;;4898316;28;116957;-66
2022/11/08 04:06:49;;;;;;;1.03;0.80;;;6.90;99.90;6.70;100473.00;;;;4905125;28;117213;-66
2022/11/08 04:09:15;;;;;;;1.27;0.80;;;7.20;99.90;6.60;100466.00;;;;4901620;28;110594;-66
2022/11/08 04:17:09;;;;;;;1.27;1.17;;;6.70;99.90;6.40;100467.00;;;;4906873;28;89194;-67
2022/11/08 04:22:19;;;;;;;0.73;0.70;;;7.20;99.90;6.30;100472.00;;;;4898785;28;88107;-67
2022/11/08 04:24:44;;;;;;;1.40;1.00;;;6.50;99.90;6.30;100468.00;;;;4903574;28;117011;-67
2022/11/08 04:27:10;;;;;;;2.37;0.83;;;6.50;99.90;6.30;100474.00;;;;4898600;28;117920;-66
2022/11/08 04:29:35;;;;;;;1.10;0.70;;;6.50;99.90;6.20;100470.00;;;;4902098;28;87755;-66
2022/11/08 04:32:01;;;;;;;1.27;0.97;;;6.40;99.90;6.20;100469.00;;;;4896388;28;109330;-65
2022/11/08 04:34:27;;;;;;;1.17;0.97;;;6.40;99.90;6.10;100467.00;;;;4901143;28;117002;-65
2022/11/08 04:36:52;;;;;;;1.47;1.20;;;6.30;99.90;6.10;100453.00;;;;4912724;28;116051;-66
2022/11/08 04:39:18;;;;;;;1.13;0.77;;;6.40;99.90;6.10;100452.00;;;;4900305;28;110618;-65
2022/11/08 04:41:44;;;;;;;3.43;1.17;;;6.20;99.90;6.00;100455.00;;;;4898665;28;107748;-66
2022/11/08 04:44:10;;;;;;;1.20;1.10;;;6.20;99.90;6.00;100454.00;;;;4901870;28;87840;-66
2022/11/08 04:46:36;;;;;;;1.07;0.87;;;6.20;99.90;6.00;100446.00;;;;4900727;28;89156;-67
2022/11/08 04:49:02;;;;;;;1.63;1.53;;;6.40;99.90;6.00;100448.00;;;;4905218;28;111123;-67
2022/11/08 04:51:32;;;;;;;3.60;1.57;;;6.10;99.90;6.00;100440.00;;;;4904092;28;92712;-67
2022/11/08 04:54:00;;;;;;;1.90;1.40;;;6.20;99.90;6.00;100449.00;;;;4900218;28;89469;-67
2022/11/08 04:56:29;;;;;;;1.30;1.20;;;6.20;99.90;6.00;100447.00;;;;4911659;28;96902;-65
2022/11/08 04:58:57;;;;;;;2.77;1.00;;;6.20;99.90;6.10;100437.00;;;;4901257;28;86889;-65
2022/11/08 05:01:26;;;;;;;7.23;1.33;;;6.20;99.90;6.00;100443.00;;;;4902230;28;88267;-65
2022/11/08 05:03:53;;;;;;;3.17;1.37;;;6.20;99.90;6.00;100447.00;;;;4899033;28;88835;-66
2022/11/08 05:06:22;;;;;;;1.30;1.20;;;6.20;99.90;6.00;100444.00;;;;4897358;28;110334;-66
2022/11/08 05:08:48;;;;;;;1.67;1.57;;;6.20;99.90;5.90;100439.00;;;;4903954;28;102562;-65
2022/11/08 05:11:18;;;;;;;0.63;0.60;;;6.10;99.90;5.90;100445.00;;;;4904515;28;101302;-66
2022/11/08 05:13:44;;;;;;;2.70;0.90;;;6.10;99.90;5.90;100449.00;;;;4911427;28;88451;-67
2022/11/08 05:16:14;;;;;;;4.03;1.43;;;6.70;99.90;5.80;100442.00;;;;4893896;28;88361;-66
2022/11/08 05:18:40;;;;;;;1.93;1.23;;;6.00;99.90;5.80;100439.00;;;;4903143;28;99583;-66
2022/11/08 05:23:54;;;;;;;1.30;1.10;;;5.90;99.90;5.70;100447.00;;;;4897794;28;87102;-67
2022/11/08 05:26:19;;;;;;;1.00;1.00;;;5.90;99.90;5.60;100452.00;;;;4899728;28;116565;-67
2022/11/08 05:28:46;;;;;;;5.80;1.20;;;5.80;99.90;5.60;100449.00;;;;4902275;28;88005;-67
2022/11/08 05:31:12;;;;;;;1.17;1.07;;;5.80;99.90;5.60;100445.00;;;;4900447;28;88804;-67
2022/11/08 05:33:37;;;;;;;2.53;1.30;;;5.70;99.90;5.60;100450.00;;;;4909325;28;118013;-66
2022/11/08 05:36:07;;;;;;;2.73;1.20;;;5.80;99.90;5.50;100439.00;;;;4900429;28;112110;-66
2022/11/08 05:38:33;;;;;;;3.40;2.27;;;5.70;99.90;5.50;100435.00;;;;4904383;28;87847;-67
2022/11/08 05:41:04;;;;;;;5.20;2.10;;;5.70;99.90;5.50;100443.00;;;;4899103;28;109315;-67
2022/11/08 05:43:30;;;;;;;2.53;1.67;;;5.60;99.90;5.50;100448.00;;;;4896776;28;89549;-67
2022/11/08 05:45:56;;;;;;;2.77;1.37;;;5.70;99.90;5.50;100451.00;;;;4896091;28;88938;-67
2022/11/08 05:48:22;;;;;;;5.80;1.90;;;5.70;99.90;5.50;100461.00;;;;4897873;28;87357;-67
2022/11/08 05:50:48;;;;;;;3.10;2.73;;;5.70;99.90;5.50;100451.00;;;;4900315;28;108548;-67
2022/11/08 05:53:14;;;;;;;4.03;2.37;;;6.10;99.90;5.60;100462.00;;;;4897766;28;115883;-67
2022/11/08 05:55:39;;;;;;;1.83;1.73;;;5.70;99.90;5.60;100471.00;;;;4895967;28;117972;-67
2022/11/08 05:58:05;;;;;;;5.77;2.40;;;5.70;99.90;5.50;100461.00;;;;4889981;28;109263;-67
2022/11/08 06:00:30;;;;;;;2.60;1.83;;;5.70;99.90;5.50;100462.00;;;;4896243;28;108729;-66
2022/11/08 06:02:56;;;;;;;1.90;1.60;;;5.70;99.90;5.50;100461.00;;;;4893875;28;117502;-67
2022/11/08 06:05:22;;;;;;;1.80;1.47;;;5.70;99.90;5.40;100467.00;;;;4897703;28;115361;-66
2022/11/08 06:07:48;;;;;;;2.23;2.07;;;5.60;99.90;5.40;100454.00;;;;4896802;28;110456;-65
2022/11/08 06:10:13;;;;;;;3.13;2.90;;;6.30;99.90;5.30;100461.00;;;;4908477;28;110048;-65
2022/11/08 06:12:39;;;;;;;4.67;3.10;;;5.60;99.90;5.30;100458.00;;;;4897086;28;87366;-65
2022/11/08 06:15:07;;;;;;;2.10;1.90;;;5.50;99.90;5.30;100452.00;;;;4901448;28;88040;-65
2022/11/08 06:17:33;;;;;;;6.53;2.57;;;5.90;99.90;5.30;100459.00;;;;4897882;28;93829;-67
2022/11/08 06:19:59;;;;;;;4.00;3.17;;;6.10;99.90;5.30;100464.00;;;;4902261;28;88721;-65
2022/11/08 06:22:25;;;;;;;4.23;3.43;;;5.40;99.90;5.30;100464.00;;;;4900627;28;111317;-66
2022/11/08 06:24:50;;;;;;;4.67;2.93;;;5.50;99.90;5.30;100461.00;;;;4898825;28;109283;-66
2022/11/08 06:27:16;;;;;;;6.93;2.37;;;5.50;99.90;5.30;100466.00;;;;4897256;28;109451;-66
2022/11/08 06:29:42;;;;;;;5.23;2.83;;;5.50;99.90;5.30;100464.00;;;;4911484;28;109844;-66
2022/11/08 06:32:10;;;;;;;5.23;2.13;;;5.50;99.90;5.30;100464.00;;;;4901821;28;87848;-66
2022/11/08 06:34:36;;;;;;;3.23;1.97;;;5.50;99.90;5.30;100463.00;;;;4902410;28;91100;-66
2022/11/08 06:37:03;;;;;;;3.23;2.17;;;5.50;99.90;5.30;100457.00;;;;4902424;28;110998;-66
2022/11/08 06:39:29;;;;;;;5.20;1.97;;;5.50;99.90;5.40;100461.00;;;;4900458;28;87721;-65
2022/11/08 06:41:55;;;;;;;3.90;1.60;;;5.50;99.90;5.40;100461.00;;;;4900623;28;115566;-66
2022/11/08 06:44:21;;;;;;;84.30;55.60;;;5.60;99.90;5.40;100457.00;;;;4903039;28;115746;-67
2022/11/08 06:46:46;;;;;;;15.40;8.63;;;5.60;99.90;5.40;100462.00;;;;4904590;28;109416;-66
2022/11/08 06:49:12;;;;;;;9.20;4.80;;;5.60;99.90;5.50;100453.00;;;;4909235;28;109015;-67
2022/11/08 06:51:37;;;;;;;4.13;3.37;;;5.70;99.90;5.50;100463.00;;;;4906046;28;118002;-65
2022/11/08 06:54:06;;;;;;;10.93;8.97;;;5.70;99.90;5.50;100448.00;;;;4904671;28;115536;-66
2022/11/08 06:56:33;;;;;;;3.70;2.83;;;5.70;99.90;5.60;100457.00;;;;4906016;28;88233;-66
2022/11/08 06:58:59;;;;;;;2.23;1.90;;;5.70;99.90;5.70;100454.00;;;;4897645;28;87816;-66
2022/11/08 07:01:24;;;;;;;1.93;1.60;;;5.80;99.90;5.90;100468.00;;;;4907111;28;116839;-66
2022/11/08 07:03:50;;;;;;;1.93;1.83;;;6.00;99.90;6.00;100453.00;;;;4903001;28;116089;-66
2022/11/08 07:06:16;;;;;;;5.37;2.53;;;6.20;99.90;6.20;100451.00;;;;4915046;28;109283;-67
2022/11/08 07:08:42;;;;;;;1.87;1.60;;;6.20;99.90;6.30;100458.00;;;;4897721;28;109130;-66
2022/11/08 07:11:08;;;;;;;4.73;2.27;;;6.30;99.90;6.40;100453.00;;;;4897707;28;87931;-66
2022/11/08 07:13:34;;;;;;;1.77;1.57;;;6.50;99.90;6.50;100453.00;;;;4903247;28;88118;-65
2022/11/08 07:16:00;;;;;;;2.90;2.10;;;6.60;99.90;6.70;100459.00;;;;4900673;28;87779;-66
2022/11/08 07:18:27;;;;;;;2.80;1.30;;;6.70;99.90;6.90;100461.00;;;;4901109;28;87913;-66
2022/11/08 07:20:57;;;;;;;3.33;2.07;;;7.50;99.90;7.20;100462.00;;;;4897617;28;88702;-66
2022/11/08 07:23:23;;;;;;;2.53;2.10;;;7.30;99.90;7.50;100459.00;;;;4900563;28;87868;-66
2022/11/08 07:25:48;;;;;;;4.07;1.50;;;7.50;99.90;7.90;100464.00;;;;4912759;28;110463;-66
2022/11/08 07:28:17;;;;;;;8.53;2.20;;;8.30;99.90;8.30;100465.00;;;;4902525;28;108624;-66
2022/11/08 07:30:45;;;;;;;4.50;2.10;;;8.20;99.90;8.50;100472.00;;;;4894089;28;88156;-66
2022/11/08 07:33:11;;;;;;;1.70;1.60;;;8.60;99.90;8.80;100454.00;;;;4901223;28;88839;-66
2022/11/08 07:35:37;;;;;;;1.73;1.43;;;8.80;99.90;9.10;100461.00;;;;4904240;28;93352;-67
2022/11/08 07:38:03;;;;;;;3.87;1.53;;;9.10;99.90;9.20;100459.00;;;;4904086;28;87800;-66
2022/11/08 07:40:29;;;;;;;3.23;2.13;;;9.30;99.90;9.40;100462.00;;;;4905907;28;89287;-66
2022/11/08 07:42:58;;;;;;;4.73;2.40;;;9.40;99.90;9.60;100467.00;;;;4903489;28;88857;-66
2022/11/08 07:45:25;;;;;;;4.13;1.67;;;9.60;99.90;9.70;100476.00;;;;4915611;28;87657;-67
2022/11/08 07:47:59;;;;;;;3.50;2.27;;;9.80;99.90;10.00;100459.00;;;;4905572;28;87834;-67
2022/11/08 07:50:25;;;;;;;3.77;2.03;;;10.00;99.90;10.30;100465.00;;;;4903404;28;88157;-66
2022/11/08 07:52:51;;;;;;;3.07;1.33;;;10.30;99.90;10.60;100477.00;;;;4903214;28;88093;-67
2022/11/08 07:55:17;;;;;;;2.83;1.20;;;10.50;99.90;11.00;100470.00;;;;4899219;28;87892;-67
2022/11/08 07:57:42;;;;;;;1.90;1.40;;;10.90;99.90;11.30;100469.00;;;;4906267;28;88809;-66
2022/11/08 08:00:09;;;;;;;4.53;1.40;;;11.20;99.90;11.70;100468.00;;;;4904374;28;118651;-66
2022/11/08 08:02:34;;;;;;;2.57;1.43;;;11.60;99.90;12.00;100466.00;;;;4913338;28;88653;-65
2022/11/08 08:05:00;;;;;;;1.63;1.47;;;11.90;99.90;12.30;100470.00;;;;4898510;28;109476;-67
2022/11/08 08:07:26;;;;;;;2.33;1.13;;;12.20;99.90;12.60;100463.00;;;;4904301;28;108815;-65
2022/11/08 08:09:51;;;;;;;2.73;1.23;;;12.50;99.90;12.90;100462.00;;;;4904284;28;117082;-66
2022/11/08 08:12:17;;;;;;;3.33;1.33;;;12.70;99.90;13.10;100467.00;;;;4902343;28;118138;-65
2022/11/08 08:14:43;;;;;;;1.23;1.00;;;13.00;99.90;13.40;100451.00;;;;4902957;28;108597;-66
2022/11/08 08:17:09;;;;;;;1.60;0.87;;;13.30;99.90;13.60;100458.00;;;;4900967;28;87955;-65
2022/11/08 08:19:34;;;;;;;3.20;1.13;;;13.50;99.90;13.80;100460.00;;;;4901947;28;117756;-65
2022/11/08 08:22:00;;;;;;;2.10;1.17;;;13.70;99.90;14.00;100453.00;;;;4909870;28;115714;-65
2022/11/08 08:24:26;;;;;;;3.07;1.90;;;13.90;99.90;14.20;100470.00;;;;4904319;28;110533;-66
2022/11/08 08:26:52;;;;;;;2.60;1.10;;;14.10;99.90;14.50;100468.00;;;;4897266;28;109995;-66
2022/11/08 08:29:18;;;;;;;2.20;0.93;;;14.30;99.90;14.80;100456.00;;;;4881935;28;89488;-66
2022/11/08 08:31:43;;;;;;;1.83;1.33;;;14.60;99.90;15.00;100451.00;;;;4900834;28;117177;-65
2022/11/08 08:34:09;;;;;;;2.53;1.33;;;14.80;99.90;15.20;100461.00;;;;4899947;28;110607;-65
2022/11/08 08:36:35;;;;;;;1.42;1.30;;;15.10;99.90;15.40;100459.00;;;;4901322;28;108639;-65
2022/11/08 08:39:00;;;;;;;1.77;0.90;;;15.30;99.90;15.70;100461.00;;;;4897141;28;115730;-66
2022/11/08 08:41:26;;;;;;;1.50;0.93;;;15.50;99.90;15.80;100467.00;;;;4910147;28;115193;-66
2022/11/08 08:43:52;;;;;;;1.58;1.20;;;15.60;99.90;15.90;100471.00;;;;4895640;28;96777;-65
2022/11/08 08:46:17;;;;;;;1.23;1.13;;;15.70;99.90;16.00;100459.00;;;;4898551;28;108624;-66
2022/11/08 08:48:43;;;;;;;3.08;1.20;;;15.90;99.90;16.20;100455.00;;;;4898036;28;115368;-64
2022/11/08 08:51:09;;;;;;;2.55;1.13;;;16.00;99.90;16.30;100458.00;;;;4900913;28;116855;-65
2022/11/08 08:53:34;;;;;;;4.05;0.88;;;16.10;99.90;16.50;100461.00;;;;4897514;28;109942;-66
2022/11/08 08:56:03;;;;;;;0.77;0.68;;;16.30;99.90;16.70;100459.00;;;;4900023;28;107906;-65
2022/11/08 08:58:29;;;;;;;0.82;0.82;;;16.50;99.90;16.90;100451.00;;;;4908419;28;89140;-65
2022/11/08 09:01:01;;;;;;;2.40;1.05;;;16.70;99.90;17.00;100448.00;;;;4906301;28;116775;-65
2022/11/08 09:03:26;;;;;;;2.30;1.27;;;16.80;99.90;17.20;100444.00;;;;4915891;28;103265;-65
2022/11/08 09:05:52;;;;;;;1.00;0.80;;;17.00;99.90;17.40;100445.00;;;;4901973;28;87898;-65
2022/11/08 09:08:18;;;;;;;1.02;0.88;;;17.20;99.90;17.60;100440.00;;;;4903303;28;117583;-65
2022/11/08 09:10:44;;;;;;;1.80;0.75;;;17.30;99.90;17.80;100450.00;;;;4899049;28;88694;-65
2022/11/08 09:13:10;;;;;;;1.33;0.85;;;17.60;99.90;18.10;100448.00;;;;4900543;28;88022;-65
2022/11/08 09:15:38;;;;;;;1.27;0.85;;;17.80;99.90;18.30;100446.00;;;;4899234;28;110559;-67
2022/11/08 09:18:03;;;;;;;1.35;0.60;;;18.10;99.50;18.50;100450.00;;;;4915348;28;88883;-66
2022/11/08 09:20:29;;;;;;;1.02;0.85;;;18.20;97.80;18.60;100454.00;;;;4898653;28;111280;-67
2022/11/08 09:22:56;;;;;;;1.33;0.82;;;18.40;95.40;18.60;100464.00;;;;4901627;28;109619;-66
2022/11/08 09:25:21;;;;;;;1.90;0.93;;;18.40;95.40;18.70;100447.00;;;;4899895;28;87987;-64
2022/11/08 09:27:47;;;;;;;1.85;0.82;;;18.50;94.30;18.70;100447.00;;;;4901170;28;117285;-64
2022/11/08 09:30:13;;;;;;;1.80;1.08;;;18.60;92.90;18.70;100449.00;;;;4900235;28;104962;-64
2022/11/08 09:32:38;;;;;;;1.77;0.73;;;18.50;93.00;18.70;100443.00;;;;4902687;28;110186;-65
2022/11/08 09:35:04;;;;;;;1.10;0.70;;;18.60;92.30;18.70;100440.00;;;;4896468;28;108263;-65
2022/11/08 09:37:30;;;;;;;0.98;0.80;;;18.60;91.60;18.80;100449.00;;;;4912392;28;111296;-65
2022/11/08 09:39:55;;;;;;;1.33;0.90;;;18.60;91.40;18.80;100445.00;;;;4904309;28;117047;-66
2022/11/08 09:42:43;;;;;;;3.25;1.88;;;18.90;90.80;18.90;100450.00;;;;4898425;28;110135;-66
2022/11/08 09:45:25;;;;;;;3.00;0.90;;;18.70;91.20;19.10;100450.00;;;;4895200;28;88013;-64
2022/11/08 09:47:58;;;;;;;2.90;1.45;;;18.80;90.20;19.20;100445.00;;;;4895828;28;87760;-64
2022/11/08 09:50:43;;;;;;;1.15;0.68;;;19.00;90.00;19.30;100453.00;;;;4900658;28;88561;-65
2022/11/08 09:53:18;;;;;;;0.90;0.75;;;19.10;88.70;19.40;100443.00;;;;4900185;28;98873;-66
2022/11/08 09:55:48;;;;;;;3.92;0.80;;;19.20;89.50;19.50;100443.00;;;;4910510;28;88209;-65
2022/11/08 09:58:26;;;;;;;3.33;1.30;;;19.30;88.20;19.40;100435.00;;;;4907001;28;88717;-65
2022/11/08 10:00:52;;;;;;;0.85;0.85;;;19.20;85.70;19.40;100442.00;;;;4891210;28;101585;-66
2022/11/08 10:03:22;;;;;;;3.63;1.08;;;19.20;86.80;19.50;100433.00;;;;4901049;28;87794;-65
2022/11/08 10:06:21;;;;;;;1.55;0.85;;;19.20;85.70;19.60;100436.00;;;;4900440;28;88162;-65
2022/11/08 10:09:19;;;;;;;0.77;0.70;;;19.40;85.30;19.80;100440.00;;;;4904225;28;88067;-66
2022/11/08 10:12:05;;;;;;;1.17;0.63;;;19.50;84.10;19.90;100430.00;;;;4900807;28;109973;-66
2022/11/08 10:14:57;;;;;;;0.70;0.70;;;19.70;83.50;20.10;100438.00;;;;4926308;28;99790;-65
2022/11/08 10:17:23;;;;;;;1.77;0.80;;;19.80;83.40;20.30;100439.00;;;;4903521;28;87747;-65
2022/11/08 10:20:12;;;;;;;2.03;0.80;;;20.00;81.70;20.40;100439.00;;;;4900939;28;88389;-66
2022/11/08 10:23:06;;;;;;;0.60;0.38;;;20.10;79.60;20.40;100440.00;;;;4896364;28;97821;-65
2022/11/08 10:25:44;;;;;;;0.80;0.80;;;20.20;79.80;20.50;100442.00;;;;4904129;28;87932;-65
2022/11/08 10:28:20;;;;;;;1.02;0.73;;;20.30;77.20;20.50;100437.00;;;;4903057;28;88909;-65
2022/11/08 10:30:50;;;;;;;1.55;1.05;;;20.20;76.80;20.50;100443.00;;;;4898855;28;89300;-64
2022/11/08 10:33:56;;;;;;;1.35;0.70;;;20.20;77.60;20.50;100435.00;;;;4917367;28;87939;-64
2022/11/08 10:36:30;;;;;;;1.23;0.90;;;20.20;76.50;20.50;100423.00;;;;4901842;28;87883;-65
2022/11/08 10:39:08;;;;;;;2.08;0.90;;;20.30;76.50;20.70;100427.00;;;;4905332;28;87940;-65
2022/11/08 10:41:49;;;;;;;0.70;0.65;;;20.40;77.20;20.90;100427.00;;;;4900208;28;88146;-65
2022/11/08 10:44:19;;;;;;;1.30;0.85;;;20.60;76.10;21.10;100420.00;;;;4901513;28;109427;-64
2022/11/08 10:46:54;;;;;;;1.17;1.05;;;20.80;74.70;21.30;100424.00;;;;4902854;28;87116;-66
2022/11/08 10:49:39;;;;;;;2.20;0.85;;;21.00;74.20;21.60;100417.00;;;;4901321;28;94733;-65
2022/11/08 10:52:10;;;;;;;1.95;1.15;;;21.20;74.80;21.90;100413.00;;;;4915939;28;110924;-65
2022/11/08 10:54:49;;;;;;;1.33;0.90;;;21.50;70.90;21.90;100414.00;;;;4901296;28;88774;-64
2022/11/08 10:57:22;;;;;;;4.30;1.25;;;21.60;70.30;21.90;100417.00;;;;4901001;28;87939;-65
2022/11/08 10:59:49;;;;;;;1.48;0.50;;;21.60;69.30;22.00;100416.00;;;;4902535;28;87878;-65
2022/11/08 11:02:26;;;;;;;0.77;0.60;;;21.60;69.00;21.90;100410.00;;;;4904718;28;88632;-63
2022/11/08 11:04:54;;;;;;;1.48;0.60;;;21.60;65.90;21.80;100409.00;;;;4908807;28;88160;-65
2022/11/08 11:07:33;;;;;;;1.45;0.45;;;21.60;66.30;21.80;100405.00;;;;4901889;28;87890;-64
2022/11/08 11:10:16;;;;;;;2.25;1.15;;;21.60;65.40;21.80;100396.00;;;;4905995;28;88870;-65
2022/11/08 11:12:48;;;;;;;6.38;1.00;;;21.50;65.50;21.70;100394.00;;;;4905606;28;87142;-65
2022/11/08 11:15:14;;;;;;;0.32;0.32;;;21.50;65.80;21.60;100398.00;;;;4904622;28;90195;-66
2022/11/08 11:17:44;;;;;;;1.23;0.90;;;21.40;65.50;21.40;100390.00;;;;4900927;28;87914;-66
2022/11/08 11:20:22;;;;;;;0.60;0.60;;;21.30;64.50;21.10;100394.00;;;;4906176;28;88798;-64